Time;durP1;ratioP1;P1;durP2;ratioP2;P2;SDS_P1;SDS_P2;PMS_P1;PMS_P2;Temp;Humidity;BMP_temperature;BMP_pressure;BME280_temperature;BME280_humidity;BME280_pressure;Samples;Min_cycle;Max_cycle;Signal;HPM_P1;HPM_P2
2023/04/07 00:01:43;;;;;;;4.88;1.67;;;5.70;99.90;;;;;;5114461;28;20495;-91
2023/04/07 00:04:09;;;;;;;9.95;1.13;;;5.70;99.90;;;;;;5114337;28;20047;-93
2023/04/07 00:06:34;;;;;;;4.90;1.05;;;5.70;99.90;;;;;;5114539;28;20036;-92
2023/04/07 00:09:00;;;;;;;9.30;1.40;;;5.60;99.90;;;;;;5114166;28;20022;-91
2023/04/07 00:11:26;;;;;;;6.43;1.10;;;5.60;99.90;;;;;;5114132;28;20077;-93
2023/04/07 00:13:52;;;;;;;9.30;1.10;;;5.60;99.90;;;;;;5114549;28;20051;-91
2023/04/07 00:16:17;;;;;;;9.65;1.50;;;5.60;99.90;;;;;;5131603;28;20031;-91
2023/04/07 00:18:43;;;;;;;7.95;1.15;;;5.50;99.90;;;;;;5114364;28;20027;-93
2023/04/07 00:21:08;;;;;;;6.40;1.15;;;5.50;99.90;;;;;;5128577;27;20066;-92
2023/04/07 00:23:34;;;;;;;9.00;1.13;;;5.50;99.90;;;;;;5113828;28;20023;-91
2023/04/07 00:26:00;;;;;;;6.18;1.17;;;5.40;99.90;;;;;;5114466;28;20027;-91
2023/04/07 00:28:26;;;;;;;7.30;0.93;;;5.40;99.90;;;;;;5114106;28;20023;-92
2023/04/07 00:30:51;;;;;;;9.80;1.10;;;5.40;99.90;;;;;;5115775;28;20027;-92
2023/04/07 00:33:17;;;;;;;7.90;1.20;;;5.40;99.90;;;;;;5117049;28;20034;-92
2023/04/07 00:35:43;;;;;;;6.00;1.00;;;5.40;99.90;;;;;;5114548;28;20074;-92
2023/04/07 00:38:08;;;;;;;7.80;0.90;;;5.40;99.90;;;;;;5129013;27;20088;-91
2023/04/07 00:40:34;;;;;;;6.85;0.95;;;5.40;99.90;;;;;;5114035;28;20464;-92
2023/04/07 00:42:59;;;;;;;8.35;1.20;;;5.40;99.90;;;;;;5113590;28;20068;-93
2023/04/07 00:45:25;;;;;;;8.05;1.58;;;5.30;99.90;;;;;;5113386;28;20482;-92
2023/04/07 00:47:51;;;;;;;7.95;2.05;;;5.30;99.90;;;;;;5113489;28;20031;-92
2023/04/07 00:50:18;;;;;;;7.85;1.30;;;5.30;99.90;;;;;;5113679;28;20111;-91
2023/04/07 00:52:44;;;;;;;8.60;1.80;;;5.30;99.90;;;;;;5113726;28;20031;-91
2023/04/07 00:55:10;;;;;;;10.10;1.25;;;5.30;99.90;;;;;;5114234;28;20015;-91
2023/04/07 00:57:36;;;;;;;7.97;1.02;;;5.20;99.90;;;;;;5117347;28;20454;-92
2023/04/07 01:00:05;;;;;;;11.27;1.90;;;5.20;99.90;;;;;;5130959;28;20024;-91
2023/04/07 01:02:57;;;;;;;8.60;1.40;;;5.20;99.90;;;;;;5130086;28;20023;-91
2023/04/07 01:05:32;;;;;;;8.75;1.50;;;5.10;99.90;;;;;;5114782;28;20138;-91
2023/04/07 01:08:09;;;;;;;6.30;1.52;;;5.20;99.90;;;;;;5115922;27;20148;-92
2023/04/07 01:10:55;;;;;;;14.90;1.48;;;5.20;99.90;;;;;;5109313;28;20114;-92
2023/04/07 01:13:49;;;;;;;11.18;1.58;;;5.10;99.90;;;;;;5121070;28;20031;-92
2023/04/07 01:16:22;;;;;;;6.55;1.20;;;5.10;99.90;;;;;;5124225;27;20058;-92
2023/04/07 01:18:53;;;;;;;9.55;1.60;;;5.20;99.90;;;;;;5113132;28;20043;-92
2023/04/07 01:21:21;;;;;;;7.97;1.20;;;5.20;99.90;;;;;;5113436;28;20595;-92
2023/04/07 01:23:59;;;;;;;6.28;1.13;;;5.10;99.90;;;;;;5115491;28;20501;-90
2023/04/07 01:26:29;;;;;;;8.85;1.65;;;5.10;99.90;;;;;;5117969;28;20044;-92
2023/04/07 01:29:30;;;;;;;5.97;1.00;;;5.10;99.90;;;;;;5124574;28;20023;-92
2023/04/07 01:31:57;;;;;;;;;;;5.10;99.90;;;;;;5120231;28;20110;-92
2023/04/07 01:34:25;;;;;;;5.80;0.98;;;5.10;99.90;;;;;;5122260;28;19904;-91
2023/04/07 01:36:53;;;;;;;7.82;1.27;;;5.10;99.90;;;;;;5128457;27;20035;-91
2023/04/07 01:39:20;;;;;;;5.40;1.15;;;5.00;99.90;;;;;;5121427;28;20108;-91
2023/04/07 01:41:46;;;;;;;7.32;1.10;;;5.00;99.90;;;;;;5116109;28;20038;-91
2023/04/07 01:44:12;;;;;;;7.43;2.33;;;5.00;99.90;;;;;;5115438;28;20041;-92
2023/04/07 01:46:38;;;;;;;10.05;1.20;;;4.90;99.90;;;;;;5113976;28;20050;-92
2023/04/07 01:49:05;;;;;;;3.03;0.93;;;4.90;99.90;;;;;;5114002;28;20461;-92
2023/04/07 01:51:32;;;;;;;5.10;1.10;;;4.90;99.90;;;;;;5113612;28;20020;-92
2023/04/07 01:54:00;;;;;;;7.22;0.93;;;4.80;99.90;;;;;;5113314;28;20028;-92
2023/04/07 01:56:26;;;;;;;8.30;1.75;;;4.80;99.90;;;;;;5113507;28;20068;-91
2023/04/07 01:58:51;;;;;;;6.03;1.10;;;4.80;99.90;;;;;;5113344;28;20019;-92
2023/04/07 02:01:17;;;;;;;2.20;0.80;;;4.80;99.90;;;;;;5112489;28;20035;-91
2023/04/07 02:03:54;;;;;;;5.55;1.25;;;4.80;99.90;;;;;;5112540;28;20028;-92
2023/04/07 02:06:26;;;;;;;8.45;1.77;;;4.70;99.90;;;;;;5113105;28;20480;-92
2023/04/07 02:08:59;;;;;;;6.72;1.05;;;4.70;99.90;;;;;;5110440;28;20104;-92
2023/04/07 02:11:26;;;;;;;4.50;0.93;;;4.70;99.90;;;;;;5113648;28;20020;-92
2023/04/07 02:13:54;;;;;;;6.60;1.33;;;4.60;99.90;;;;;;5113464;28;20027;-91
2023/04/07 02:16:20;;;;;;;4.80;0.93;;;4.60;99.90;;;;;;5112565;28;20036;-92
2023/04/07 02:18:46;;;;;;;11.75;1.27;;;4.60;99.90;;;;;;5112401;28;20106;-91
2023/04/07 02:21:14;;;;;;;6.20;1.00;;;4.50;99.90;;;;;;5115362;28;20027;-91
2023/04/07 02:23:40;;;;;;;5.82;0.90;;;4.50;99.90;;;;;;5133039;28;20011;-92
2023/04/07 02:26:06;;;;;;;9.27;1.00;;;4.50;99.90;;;;;;5134760;28;20039;-91
2023/04/07 02:28:31;;;;;;;4.60;1.35;;;4.50;99.90;;;;;;5120348;28;20030;-91
2023/04/07 02:30:57;;;;;;;5.55;0.70;;;4.50;99.90;;;;;;5124696;28;20019;-90
2023/04/07 02:33:23;;;;;;;6.43;0.95;;;4.50;99.90;;;;;;5122616;28;20023;-90
2023/04/07 02:35:48;;;;;;;4.70;1.15;;;4.50;99.90;;;;;;5133042;28;20492;-92
2023/04/07 02:38:14;;;;;;;3.40;1.20;;;4.40;99.90;;;;;;5112024;28;20122;-91
2023/04/07 02:40:40;;;;;;;4.45;1.63;;;4.40;99.90;;;;;;5112180;28;20019;-92
2023/04/07 02:43:06;;;;;;;6.93;1.13;;;4.40;99.90;;;;;;5111508;28;20472;-91
2023/04/07 02:45:31;;;;;;;6.45;1.10;;;4.40;99.90;;;;;;5112712;28;20124;-90
2023/04/07 02:47:57;;;;;;;10.95;1.25;;;4.30;99.90;;;;;;5112160;28;20036;-90
2023/04/07 02:50:24;;;;;;;4.05;0.93;;;4.30;99.90;;;;;;5112260;28;20027;-93
2023/04/07 02:52:50;;;;;;;4.75;1.95;;;4.30;99.90;;;;;;5111582;28;20019;-92
2023/04/07 02:55:17;;;;;;;5.25;1.20;;;4.20;99.90;;;;;;5112261;28;20019;-91
2023/04/07 02:57:43;;;;;;;7.32;1.13;;;4.20;99.90;;;;;;5112747;28;20028;-90
2023/04/07 03:00:09;;;;;;;3.13;1.05;;;4.20;99.90;;;;;;5116741;28;20121;-92
2023/04/07 03:02:35;;;;;;;3.95;0.85;;;4.20;99.90;;;;;;5118686;28;20027;-92
2023/04/07 03:05:02;;;;;;;4.80;1.13;;;4.20;99.90;;;;;;5116237;28;20126;-92
2023/04/07 03:07:30;;;;;;;7.72;1.42;;;4.10;99.90;;;;;;5117185;28;20027;-92
2023/04/07 03:09:55;;;;;;;8.65;1.40;;;4.00;99.90;;;;;;5116368;28;20031;-92
2023/04/07 03:12:21;;;;;;;5.22;1.00;;;4.00;99.90;;;;;;5115426;28;20035;-91
2023/04/07 03:14:46;;;;;;;8.85;1.27;;;4.00;99.90;;;;;;5115019;28;20016;-91
2023/04/07 03:17:12;;;;;;;8.85;1.73;;;4.00;99.90;;;;;;5116353;28;20016;-91
2023/04/07 03:19:38;;;;;;;8.60;1.23;;;4.00;99.90;;;;;;5116396;28;20023;-90
2023/04/07 03:22:03;;;;;;;4.80;1.02;;;3.90;99.90;;;;;;5114600;28;20024;-90
2023/04/07 03:24:29;;;;;;;9.88;1.15;;;3.90;99.90;;;;;;5115659;28;20027;-92
2023/04/07 03:26:55;;;;;;;6.13;1.02;;;3.90;99.90;;;;;;5115939;28;20059;-90
2023/04/07 03:29:20;;;;;;;7.53;1.17;;;3.90;99.90;;;;;;5116096;28;20020;-91
2023/04/07 03:31:46;;;;;;;5.53;1.10;;;3.80;99.90;;;;;;5115297;28;20024;-91
2023/04/07 03:34:12;;;;;;;2.38;0.73;;;3.80;99.90;;;;;;5115344;28;20049;-90
2023/04/07 03:36:38;;;;;;;6.78;1.13;;;3.70;99.90;;;;;;5116339;28;20069;-92
2023/04/07 03:39:03;;;;;;;3.38;1.02;;;3.70;99.90;;;;;;5116268;28;20045;-91
2023/04/07 03:41:29;;;;;;;4.82;1.15;;;3.70;99.90;;;;;;5115627;28;20473;-90
2023/04/07 03:43:55;;;;;;;5.53;0.77;;;3.70;99.90;;;;;;5117362;28;20023;-91
2023/04/07 03:46:21;;;;;;;4.55;2.08;;;3.70;99.90;;;;;;5120223;28;20077;-91
2023/04/07 03:48:47;;;;;;;4.47;1.05;;;3.60;99.90;;;;;;5115155;28;20016;-90
2023/04/07 03:51:12;;;;;;;5.28;1.00;;;3.60;99.90;;;;;;5115665;28;20016;-91
2023/04/07 03:53:38;;;;;;;3.08;0.80;;;3.60;99.90;;;;;;5118397;28;20024;-91
2023/04/07 03:56:04;;;;;;;5.40;1.25;;;3.50;99.90;;;;;;5123236;28;20016;-91
2023/04/07 03:58:30;;;;;;;4.18;1.02;;;3.40;99.90;;;;;;5099177;28;20509;-90
2023/04/07 04:00:56;;;;;;;11.70;1.20;;;3.30;99.90;;;;;;5112818;28;20030;-91
2023/04/07 04:03:21;;;;;;;4.25;1.00;;;3.30;99.90;;;;;;5116215;28;20521;-91
2023/04/07 04:05:47;;;;;;;4.00;0.95;;;3.20;99.90;;;;;;5115022;28;20052;-92
2023/04/07 04:08:12;;;;;;;13.20;1.15;;;3.30;99.90;;;;;;5115764;28;20023;-90
2023/04/07 04:10:38;;;;;;;6.43;0.90;;;3.40;99.90;;;;;;5114810;28;20114;-91
2023/04/07 04:13:06;;;;;;;10.13;1.20;;;3.40;99.90;;;;;;5114613;28;20024;-92
2023/04/07 04:15:32;;;;;;;5.97;1.00;;;3.50;99.90;;;;;;5118627;27;20026;-91
2023/04/07 04:17:58;;;;;;;6.47;1.05;;;3.50;99.90;;;;;;5116360;28;20419;-93
2023/04/07 04:20:24;;;;;;;6.32;1.02;;;3.50;99.90;;;;;;5114241;28;20034;-91
2023/04/07 04:22:49;;;;;;;2.20;0.90;;;3.40;99.90;;;;;;5111588;28;20026;-92
2023/04/07 04:25:19;;;;;;;5.07;1.08;;;3.30;99.90;;;;;;5122849;28;20028;-92
2023/04/07 04:27:46;;;;;;;6.40;1.67;;;3.30;99.90;;;;;;5114306;28;20047;-92
2023/04/07 04:30:11;;;;;;;5.70;0.73;;;3.20;99.90;;;;;;5115434;28;20038;-92
2023/04/07 04:32:37;;;;;;;1.63;0.90;;;3.20;99.90;;;;;;5118890;28;20107;-92
2023/04/07 04:35:03;;;;;;;4.28;0.90;;;3.20;99.90;;;;;;5115125;28;20064;-92
2023/04/07 04:37:28;;;;;;;4.60;0.77;;;3.20;99.90;;;;;;5115273;28;20144;-92
2023/04/07 04:39:54;;;;;;;5.53;0.95;;;3.20;99.90;;;;;;5114527;28;20392;-91
2023/04/07 04:42:20;;;;;;;3.58;0.80;;;3.20;99.90;;;;;;5114606;28;20477;-90
2023/04/07 04:44:45;;;;;;;4.72;0.77;;;3.20;99.90;;;;;;5114244;28;20027;-93
2023/04/07 04:47:11;;;;;;;2.55;0.70;;;3.20;99.90;;;;;;5114587;28;20190;-92
2023/04/07 04:49:37;;;;;;;1.92;0.55;;;3.10;99.90;;;;;;5115703;28;20018;-92
2023/04/07 04:52:03;;;;;;;2.58;0.60;;;3.10;99.90;;;;;;5132652;28;20027;-91
2023/04/07 04:54:28;;;;;;;4.93;0.88;;;3.10;99.90;;;;;;5116731;28;20092;-94
2023/04/07 04:56:56;;;;;;;4.85;0.90;;;3.00;99.90;;;;;;5114699;28;20119;-92
2023/04/07 04:59:22;;;;;;;5.35;0.73;;;3.00;99.90;;;;;;5116680;28;20023;-92
2023/04/07 05:01:47;;;;;;;4.15;0.90;;;3.00;99.90;;;;;;5132668;28;20019;-92
2023/04/07 05:04:13;;;;;;;4.40;0.85;;;2.90;99.90;;;;;;5117713;28;20055;-94
2023/04/07 05:06:39;;;;;;;4.25;0.80;;;2.80;99.90;;;;;;5119678;28;20019;-93
2023/04/07 05:09:04;;;;;;;2.88;0.88;;;2.80;99.90;;;;;;5126438;28;20053;-94
2023/04/07 05:11:30;;;;;;;4.78;1.55;;;2.70;99.90;;;;;;5130122;27;20472;-92
2023/04/07 05:13:56;;;;;;;4.95;0.88;;;2.70;99.90;;;;;;5115751;28;20087;-92
2023/04/07 05:16:22;;;;;;;6.22;1.05;;;2.60;99.90;;;;;;5115466;28;20130;-92
2023/04/07 05:18:48;;;;;;;6.43;1.17;;;2.60;99.90;;;;;;5116802;28;20020;-93
2023/04/07 05:21:14;;;;;;;8.30;0.98;;;2.50;99.90;;;;;;5127146;28;20020;-91
2023/04/07 05:23:40;;;;;;;2.08;0.68;;;2.50;99.90;;;;;;5123035;28;20349;-93
2023/04/07 05:26:06;;;;;;;2.80;0.73;;;2.50;99.90;;;;;;5117744;28;20131;-92
2023/04/07 05:28:32;;;;;;;2.53;0.80;;;2.50;99.90;;;;;;5117329;28;20016;-92
2023/04/07 05:30:57;;;;;;;2.45;0.70;;;2.60;99.90;;;;;;5117301;28;20030;-93
2023/04/07 05:33:23;;;;;;;3.28;1.13;;;2.50;99.90;;;;;;5116721;28;20134;-92
2023/04/07 05:35:48;;;;;;;2.50;0.95;;;2.50;99.90;;;;;;5125526;28;20036;-93
2023/04/07 05:38:15;;;;;;;6.18;1.02;;;2.60;99.90;;;;;;5136402;28;20035;-90
2023/04/07 05:40:41;;;;;;;6.75;0.98;;;2.50;99.90;;;;;;5137261;28;20015;-90
2023/04/07 05:43:07;;;;;;;4.03;0.90;;;2.60;99.90;;;;;;5137395;28;20012;-90
2023/04/07 05:45:33;;;;;;;3.90;0.68;;;2.60;99.90;;;;;;5137710;27;20046;-91
2023/04/07 05:47:58;;;;;;;2.10;0.60;;;2.60;99.90;;;;;;5137457;28;20012;-92
2023/04/07 05:50:24;;;;;;;2.25;0.68;;;2.60;99.90;;;;;;5136482;28;20091;-93
2023/04/07 05:52:50;;;;;;;5.10;0.90;;;2.60;99.90;;;;;;5131465;28;20037;-93
2023/04/07 05:55:16;;;;;;;5.82;0.90;;;2.60;99.90;;;;;;5134336;28;20033;-92
2023/04/07 05:57:41;;;;;;;3.63;0.70;;;2.60;99.90;;;;;;5134751;28;20023;-90
2023/04/07 06:00:08;;;;;;;5.65;0.80;;;2.50;99.90;;;;;;5134689;28;20008;-92
2023/04/07 06:02:34;;;;;;;2.90;0.90;;;2.60;99.90;;;;;;5134656;28;20012;-91
2023/04/07 06:05:00;;;;;;;6.97;1.00;;;2.60;99.90;;;;;;5133862;28;20043;-92
2023/04/07 06:07:26;;;;;;;3.13;0.80;;;2.60;99.90;;;;;;5124411;28;20111;-93
2023/04/07 06:09:51;;;;;;;5.55;0.50;;;2.50;99.90;;;;;;5123290;28;20016;-92
2023/04/07 06:12:17;;;;;;;6.80;0.80;;;2.50;99.90;;;;;;5121205;28;20496;-91
2023/04/07 06:14:50;;;;;;;4.55;0.95;;;2.50;99.90;;;;;;5120179;28;20023;-92
2023/04/07 06:17:15;;;;;;;4.45;0.85;;;2.50;99.90;;;;;;5146209;27;20032;-91
2023/04/07 06:19:41;;;;;;;4.80;1.27;;;2.50;99.90;;;;;;5135428;28;20095;-90
2023/04/07 06:22:07;;;;;;;3.15;0.60;;;2.50;99.90;;;;;;5136692;28;20008;-90
2023/04/07 06:24:32;;;;;;;7.50;0.77;;;2.50;99.90;;;;;;5135361;28;20016;-92
2023/04/07 06:27:00;;;;;;;1.63;0.50;;;2.60;99.90;;;;;;5135612;28;20070;-90
2023/04/07 06:29:26;;;;;;;6.82;1.05;;;2.60;99.90;;;;;;5135371;28;20026;-91
2023/04/07 06:31:52;;;;;;;3.60;0.60;;;2.70;99.90;;;;;;5134745;28;20051;-88
2023/04/07 06:34:17;;;;;;;6.38;2.45;;;2.70;99.90;;;;;;5137814;28;20031;-91
2023/04/07 06:36:43;;;;;;;3.33;0.82;;;2.80;99.90;;;;;;5138616;28;20074;-90
2023/04/07 06:39:09;;;;;;;2.20;0.60;;;2.80;99.90;;;;;;5138832;28;20035;-93
2023/04/07 06:41:35;;;;;;;5.47;0.60;;;2.80;99.90;;;;;;5139741;28;20018;-90
2023/04/07 06:44:01;;;;;;;3.53;0.65;;;2.90;99.90;;;;;;5140875;27;20081;-92
2023/04/07 06:46:27;;;;;;;2.17;1.65;;;2.80;99.90;;;;;;5140418;27;20026;-92
2023/04/07 06:48:53;;;;;;;9.73;0.98;;;2.90;99.90;;;;;;5140599;28;20043;-90
2023/04/07 06:51:18;;;;;;;6.35;1.08;;;2.80;99.90;;;;;;5140720;28;20246;-90
2023/04/07 06:53:46;;;;;;;2.53;0.70;;;2.80;99.90;;;;;;5122436;28;20027;-92
2023/04/07 06:56:12;;;;;;;2.20;0.98;;;2.80;99.90;;;;;;5125643;28;20014;-90
2023/04/07 06:58:38;;;;;;;4.15;2.00;;;2.90;99.90;;;;;;5140422;27;20036;-90
2023/04/07 07:01:04;;;;;;;3.67;1.10;;;2.90;99.90;;;;;;5138820;28;20038;-91
2023/04/07 07:03:31;;;;;;;8.70;1.48;;;3.00;99.90;;;;;;5136157;28;20003;-91
2023/04/07 07:06:01;;;;;;;5.75;1.00;;;3.10;99.90;;;;;;5139096;28;20050;-91
2023/04/07 07:08:28;;;;;;;4.55;0.98;;;3.10;99.90;;;;;;5139731;28;20017;-89
2023/04/07 07:10:54;;;;;;;7.10;1.65;;;3.20;99.90;;;;;;5138382;28;20020;-89
2023/04/07 07:13:25;;;;;;;9.07;2.03;;;3.20;99.90;;;;;;5140035;28;20047;-88
2023/04/07 07:15:51;;;;;;;5.25;1.50;;;3.20;99.90;;;;;;5135211;28;20012;-91
2023/04/07 07:18:17;;;;;;;8.65;1.52;;;3.20;99.90;;;;;;5135096;28;20020;-91
2023/04/07 07:20:43;;;;;;;6.55;1.60;;;3.30;99.90;;;;;;5137757;28;20031;-91
2023/04/07 07:23:08;;;;;;;8.73;1.55;;;3.30;99.90;;;;;;5139353;28;20027;-91
2023/04/07 07:25:34;;;;;;;6.57;1.35;;;3.30;99.90;;;;;;5138040;28;20051;-90
2023/04/07 07:28:01;;;;;;;7.57;3.25;;;3.30;99.90;;;;;;5136999;28;20030;-92
2023/04/07 07:30:27;;;;;;;6.68;2.03;;;3.30;99.90;;;;;;5135182;28;20039;-91
2023/04/07 07:32:53;;;;;;;4.68;1.83;;;3.40;99.90;;;;;;5133728;28;20027;-89
2023/04/07 07:35:20;;;;;;;5.95;1.92;;;3.40;99.90;;;;;;5132673;28;20031;-91
2023/04/07 07:37:46;;;;;;;11.32;2.38;;;3.40;99.90;;;;;;5133209;28;20048;-90
2023/04/07 07:40:13;;;;;;;6.38;1.92;;;3.50;99.90;;;;;;5134517;28;20015;-92
2023/04/07 07:42:39;;;;;;;8.18;1.98;;;3.50;99.90;;;;;;5134556;28;20096;-90
2023/04/07 07:45:06;;;;;;;6.82;2.00;;;3.60;99.90;;;;;;5134941;28;20028;-92
2023/04/07 07:47:31;;;;;;;7.75;2.25;;;3.60;99.90;;;;;;5136641;28;20011;-92
2023/04/07 07:49:57;;;;;;;4.95;1.67;;;3.70;99.90;;;;;;5136785;28;20028;-90
2023/04/07 07:52:23;;;;;;;8.55;2.15;;;3.70;99.90;;;;;;5135840;28;20034;-92
2023/04/07 07:54:50;;;;;;;9.20;1.27;;;3.80;99.90;;;;;;5134426;28;20305;-90
2023/04/07 07:57:17;;;;;;;5.13;2.22;;;3.90;99.90;;;;;;5132920;28;20035;-91
2023/04/07 07:59:42;;;;;;;6.75;1.20;;;3.90;99.90;;;;;;5133183;28;20024;-90
2023/04/07 08:02:09;;;;;;;4.03;1.30;;;4.00;99.90;;;;;;5131958;28;20092;-91
2023/04/07 08:04:35;;;;;;;5.82;1.40;;;4.10;99.90;;;;;;5130651;28;20098;-90
2023/04/07 08:07:02;;;;;;;6.80;1.35;;;4.20;99.90;;;;;;5130625;28;20035;-90
2023/04/07 08:09:28;;;;;;;3.53;1.20;;;4.30;99.90;;;;;;5130227;28;20030;-90
2023/04/07 08:11:53;;;;;;;3.70;1.25;;;4.40;99.90;;;;;;5134998;28;20058;-89
2023/04/07 08:14:19;;;;;;;9.95;1.55;;;4.50;99.90;;;;;;5136068;28;20099;-90
2023/04/07 08:16:45;;;;;;;3.63;1.05;;;4.60;99.90;;;;;;5136037;28;20024;-90
2023/04/07 08:19:12;;;;;;;5.47;1.10;;;4.70;99.90;;;;;;5136201;28;20014;-91
2023/04/07 08:21:38;;;;;;;5.28;1.05;;;4.80;99.90;;;;;;5113540;28;20028;-91
2023/04/07 08:24:04;;;;;;;4.28;1.30;;;4.90;99.90;;;;;;5135359;28;20052;-92
2023/04/07 08:26:31;;;;;;;4.97;1.23;;;5.00;99.90;;;;;;5130174;28;20039;-90
2023/04/07 08:28:57;;;;;;;5.95;1.10;;;5.10;99.90;;;;;;5136231;28;20087;-90
2023/04/07 08:31:23;;;;;;;2.53;0.98;;;5.20;99.90;;;;;;5136152;28;20075;-90
2023/04/07 08:33:52;;;;;;;7.93;1.40;;;5.30;99.90;;;;;;5131451;28;20035;-91
2023/04/07 08:36:19;;;;;;;2.58;0.73;;;5.50;99.90;;;;;;5130536;28;20019;-90
2023/04/07 08:38:45;;;;;;;2.45;0.52;;;5.60;99.90;;;;;;5129122;28;20565;-89
2023/04/07 08:41:12;;;;;;;7.35;0.88;;;5.80;99.90;;;;;;5129382;28;20031;-90
2023/04/07 08:43:40;;;;;;;5.40;0.90;;;6.00;99.90;;;;;;5128928;28;20016;-89
2023/04/07 08:46:09;;;;;;;5.93;1.75;;;6.10;99.90;;;;;;5128761;28;20060;-89
2023/04/07 08:48:37;;;;;;;3.88;0.90;;;6.30;99.90;;;;;;5128818;28;20020;-90
2023/04/07 08:51:09;;;;;;;6.97;0.90;;;6.50;99.90;;;;;;5127016;28;20020;-90
2023/04/07 08:53:49;;;;;;;5.38;1.00;;;6.70;99.90;;;;;;5122457;28;20438;-89
2023/04/07 08:56:17;;;;;;;2.00;0.73;;;6.80;99.90;;;;;;5117711;28;20031;-89
2023/04/07 08:58:44;;;;;;;2.38;0.45;;;7.00;99.90;;;;;;5121909;28;20266;-90
2023/04/07 09:01:10;;;;;;;25.05;2.33;;;7.20;99.90;;;;;;5123418;28;20114;-90
2023/04/07 09:03:37;;;;;;;1.75;0.43;;;7.40;99.90;;;;;;5124004;28;20064;-90
2023/04/07 09:06:03;;;;;;;35.45;1.90;;;7.60;99.90;;;;;;5124938;28;20073;-90
2023/04/07 09:08:29;;;;;;;4.40;0.90;;;7.80;99.90;;;;;;5126031;28;20023;-90
2023/04/07 09:10:57;;;;;;;2.45;0.60;;;7.90;99.90;;;;;;5128865;28;20049;-90
2023/04/07 09:13:26;;;;;;;2.30;1.00;;;8.10;99.90;;;;;;5126526;28;20032;-91
2023/04/07 09:15:51;;;;;;;4.03;0.73;;;8.20;99.90;;;;;;5129514;28;20027;-90
2023/04/07 09:18:18;;;;;;;2.53;0.30;;;8.30;99.90;;;;;;5124037;28;20038;-92
2023/04/07 09:20:58;;;;;;;3.42;0.70;;;8.50;99.90;;;;;;5123120;28;20023;-91
2023/04/07 09:23:30;;;;;;;1.65;0.75;;;8.60;99.90;;;;;;5121289;28;20038;-90
2023/04/07 09:26:00;;;;;;;2.58;0.32;;;8.70;99.90;;;;;;5122032;28;20122;-91
2023/04/07 09:28:43;;;;;;;1.90;0.47;;;8.90;99.90;;;;;;5117869;28;20101;-90
2023/04/07 09:31:08;;;;;;;2.03;0.30;;;9.00;99.90;;;;;;5117389;28;20030;-90
2023/04/07 09:33:35;;;;;;;1.55;0.30;;;9.00;99.90;;;;;;5114315;28;20020;-89
2023/04/07 09:36:01;;;;;;;4.60;0.47;;;9.10;99.90;;;;;;5115223;28;20031;-89
2023/04/07 09:38:39;;;;;;;1.35;0.65;;;9.30;99.90;;;;;;5114811;28;20023;-89
2023/04/07 09:41:13;;;;;;;1.42;0.75;;;9.50;99.90;;;;;;5112282;28;20035;-91
2023/04/07 09:43:44;;;;;;;2.20;0.55;;;9.70;99.90;;;;;;5121772;28;20517;-91
2023/04/07 09:46:17;;;;;;;2.78;0.60;;;9.80;99.50;;;;;;5114835;28;20585;-90
2023/04/07 09:48:45;;;;;;;3.70;0.95;;;9.80;98.40;;;;;;5111214;28;20024;-89
2023/04/07 09:51:15;;;;;;;2.35;0.40;;;9.90;97.80;;;;;;5113870;28;20020;-91
2023/04/07 09:53:51;;;;;;;2.63;0.40;;;9.90;97.20;;;;;;5114511;28;20035;-91
2023/04/07 09:56:18;;;;;;;2.30;0.40;;;10.10;96.70;;;;;;5114291;28;20062;-91
2023/04/07 09:58:46;;;;;;;2.58;0.60;;;10.20;96.20;;;;;;5113174;28;20418;-91
2023/04/07 10:01:13;;;;;;;1.38;0.47;;;10.30;95.40;;;;;;5113026;28;20027;-91
2023/04/07 10:03:39;;;;;;;2.25;0.28;;;10.60;94.80;;;;;;5114638;28;20030;-91
2023/04/07 10:06:05;;;;;;;1.60;0.45;;;10.90;94.10;;;;;;5118530;28;20032;-90
2023/04/07 10:08:33;;;;;;;2.70;0.73;;;11.20;92.80;;;;;;5118823;28;20034;-92
2023/04/07 10:11:04;;;;;;;1.08;0.40;;;11.60;91.80;;;;;;5114371;28;20031;-92
2023/04/07 10:13:31;;;;;;;1.50;0.40;;;11.90;90.30;;;;;;5120691;28;20020;-90
2023/04/07 10:15:58;;;;;;;2.60;0.60;;;12.20;89.30;;;;;;5120013;28;20083;-92
2023/04/07 10:18:31;;;;;;;1.58;0.40;;;12.40;87.20;;;;;;5118551;28;20705;-90
2023/04/07 10:21:03;;;;;;;4.25;0.55;;;12.70;86.30;;;;;;5113355;28;20015;-91
2023/04/07 10:23:47;;;;;;;1.90;0.40;;;13.00;84.10;;;;;;5117666;28;20035;-92
2023/04/07 10:26:36;;;;;;;0.75;0.20;;;13.30;82.20;;;;;;5113341;28;20050;-91
2023/04/07 10:29:12;;;;;;;0.65;0.43;;;13.50;80.40;;;;;;5114771;28;20019;-90
2023/04/07 10:31:38;;;;;;;2.13;0.60;;;13.60;78.70;;;;;;5110369;28;20039;-92
2023/04/07 10:34:04;;;;;;;1.40;0.40;;;13.80;77.20;;;;;;5104017;28;20030;-91
2023/04/07 10:36:30;;;;;;;2.15;0.40;;;13.90;75.60;;;;;;5101165;28;20091;-92
2023/04/07 10:39:08;;;;;;;2.25;0.68;;;14.10;75.00;;;;;;5113667;28;20024;-91
2023/04/07 10:41:37;;;;;;;0.90;0.45;;;14.30;73.40;;;;;;5109373;28;20021;-90
2023/04/07 10:44:05;;;;;;;1.83;0.50;;;14.40;72.90;;;;;;5111257;28;20499;-91
2023/04/07 10:47:00;;;;;;;1.67;0.50;;;14.60;72.30;;;;;;5141277;28;20057;-90
2023/04/07 10:49:26;;;;;;;2.00;0.35;;;14.80;71.50;;;;;;5112102;28;20044;-92
2023/04/07 10:52:10;;;;;;;4.40;0.40;;;15.10;71.10;;;;;;5110125;28;20071;-90
2023/04/07 10:54:36;;;;;;;0.98;0.40;;;15.40;70.00;;;;;;5116895;28;20027;-91
2023/04/07 10:57:02;;;;;;;4.03;0.28;;;15.50;68.90;;;;;;5111722;28;20153;-92
2023/04/07 10:59:31;;;;;;;3.15;0.77;;;15.70;68.00;;;;;;5134949;28;20079;-91
2023/04/07 11:02:13;;;;;;;4.23;0.50;;;15.90;67.20;;;;;;5152486;27;20161;-92
2023/04/07 11:04:44;;;;;;;1.40;0.60;;;16.10;66.50;;;;;;5134689;27;20107;-91
2023/04/07 11:07:13;;;;;;;3.60;0.40;;;16.20;65.30;;;;;;5117653;28;20081;-92
2023/04/07 11:09:42;;;;;;;1.52;0.32;;;16.30;65.00;;;;;;5117753;28;20027;-90
2023/04/07 11:12:22;;;;;;;1.85;0.32;;;16.50;64.60;;;;;;5122640;28;20055;-92
2023/04/07 11:14:47;;;;;;;1.70;0.30;;;16.60;64.10;;;;;;5118560;28;20489;-91
2023/04/07 11:17:15;;;;;;;1.52;0.35;;;16.70;63.30;;;;;;5119664;28;20032;-90
2023/04/07 11:19:51;;;;;;;2.13;0.60;;;16.80;62.80;;;;;;5119897;28;20396;-91
2023/04/07 11:22:17;;;;;;;3.58;0.60;;;17.00;62.20;;;;;;5119223;28;20016;-90
2023/04/07 11:24:45;;;;;;;2.20;0.50;;;17.20;61.60;;;;;;5119545;28;20119;-91
2023/04/07 11:27:15;;;;;;;2.45;0.50;;;17.40;60.80;;;;;;5127077;28;20039;-90
2023/04/07 11:29:41;;;;;;;0.70;0.43;;;17.50;60.10;;;;;;5119273;28;20144;-91
2023/04/07 11:32:07;;;;;;;2.45;0.47;;;17.60;60.10;;;;;;5120320;28;20031;-90
2023/04/07 11:34:35;;;;;;;3.33;0.52;;;17.60;59.70;;;;;;5126259;28;20408;-89
2023/04/07 11:37:21;;;;;;;3.95;0.60;;;17.40;59.50;;;;;;5117997;28;20444;-90
2023/04/07 11:39:57;;;;;;;3.67;0.55;;;17.20;59.20;;;;;;5119377;28;20077;-90
2023/04/07 11:42:39;;;;;;;2.40;0.70;;;17.00;59.50;;;;;;5101968;28;20078;-91
2023/04/07 11:45:15;;;;;;;4.57;0.55;;;17.10;58.90;;;;;;5118989;28;20027;-91
2023/04/07 11:47:41;;;;;;;1.25;0.30;;;17.20;58.90;;;;;;5121345;28;20019;-91
2023/04/07 11:50:07;;;;;;;0.90;0.68;;;17.40;58.70;;;;;;5118446;28;20472;-92
2023/04/07 11:52:46;;;;;;;1.98;0.50;;;17.60;58.40;;;;;;5121773;28;20035;-92
2023/04/07 11:55:20;;;;;;;3.05;0.60;;;17.80;57.80;;;;;;5119864;28;20039;-91
2023/04/07 11:57:46;;;;;;;1.15;0.45;;;18.20;57.90;;;;;;5118308;28;20392;-91
2023/04/07 12:00:13;;;;;;;3.40;1.23;;;18.50;57.20;;;;;;5118489;28;20118;-91
2023/04/07 12:02:39;;;;;;;2.30;0.50;;;18.80;56.60;;;;;;5118181;28;20093;-91
2023/04/07 12:05:05;;;;;;;1.63;0.50;;;19.10;56.50;;;;;;5118640;28;20492;-91
2023/04/07 12:07:31;;;;;;;3.00;0.60;;;19.40;56.10;;;;;;5119119;28;20035;-90
2023/04/07 12:09:56;;;;;;;4.13;0.90;;;19.70;55.80;;;;;;5120467;28;20023;-92
2023/04/07 12:12:29;;;;;;;3.28;0.50;;;19.90;55.30;;;;;;5120878;28;20062;-91
2023/04/07 12:14:55;;;;;;;2.65;0.60;;;20.10;54.70;;;;;;5118703;28;20043;-90
2023/04/07 12:17:25;;;;;;;4.10;0.90;;;20.20;54.30;;;;;;5116881;28;20019;-91
2023/04/07 12:19:51;;;;;;;2.33;0.55;;;20.00;54.10;;;;;;5117634;28;20472;-92
2023/04/07 12:22:18;;;;;;;1.65;0.50;;;19.70;53.70;;;;;;5117929;28;20123;-93
2023/04/07 12:24:43;;;;;;;1.23;0.40;;;19.20;54.00;;;;;;5120192;28;20035;-88
2023/04/07 12:27:09;;;;;;;3.15;0.50;;;19.00;54.70;;;;;;5122869;28;20035;-92
2023/04/07 12:29:36;;;;;;;2.70;0.50;;;19.00;55.00;;;;;;5123581;28;20028;-92
2023/04/07 12:32:02;;;;;;;1.52;0.50;;;19.00;54.90;;;;;;5122934;28;20060;-93
2023/04/07 12:34:28;;;;;;;4.95;0.85;;;19.00;54.70;;;;;;5123647;28;20016;-91
2023/04/07 12:36:54;;;;;;;2.40;0.40;;;19.20;54.20;;;;;;5123438;28;20023;-92
2023/04/07 12:39:20;;;;;;;1.38;0.55;;;19.40;53.90;;;;;;5123847;28;20027;-91
2023/04/07 12:41:51;;;;;;;3.67;0.57;;;19.60;53.60;;;;;;5124262;28;20050;-92
2023/04/07 12:44:17;;;;;;;2.42;0.65;;;19.80;53.10;;;;;;5117332;28;20020;-93
2023/04/07 12:46:43;;;;;;;2.42;0.68;;;19.90;52.80;;;;;;5116059;28;20061;-92
2023/04/07 12:49:09;;;;;;;1.20;0.50;;;19.80;52.40;;;;;;5116275;28;20465;-90
2023/04/07 12:51:35;;;;;;;1.67;0.52;;;19.60;52.20;;;;;;5116332;28;20024;-91
2023/04/07 12:54:01;;;;;;;2.22;0.43;;;19.50;52.30;;;;;;5116386;28;20019;-91
2023/04/07 12:56:27;;;;;;;1.73;0.50;;;19.50;52.30;;;;;;5118424;28;20034;-89
2023/04/07 12:58:53;;;;;;;2.42;0.40;;;19.60;52.20;;;;;;5133265;27;20027;-91